createdAt,value
2023-06-16T00:01:11.054Z,85.33
2023-06-16T00:06:28.941Z,85.72
2023-06-16T00:11:34.402Z,86.29
2023-06-16T00:16:44.387Z,86.30
2023-06-16T00:21:49.539Z,85.97
2023-06-16T00:26:53.177Z,86.60
2023-06-16T00:31:57.058Z,86.79
2023-06-16T00:37:00.404Z,86.77
2023-06-16T00:42:04.476Z,87.25
2023-06-16T00:47:08.275Z,87.15
2023-06-16T00:52:15.278Z,87.24
2023-06-16T00:57:18.969Z,87.42
2023-06-16T01:02:24.617Z,87.80
2023-06-16T01:07:35.077Z,88.09
2023-06-16T01:13:13.775Z,88.17
2023-06-16T01:18:29.034Z,88.53
2023-06-16T01:24:09.238Z,88.83
2023-06-16T01:29:14.458Z,88.82
2023-06-16T01:34:22.686Z,88.80
2023-06-16T01:39:29.934Z,88.96
2023-06-16T01:44:36.853Z,89.28
2023-06-16T01:49:41.120Z,89.33
2023-06-16T01:54:44.766Z,89.17
2023-06-16T02:00:00.691Z,88.87
2023-06-16T02:05:06.744Z,88.84
2023-06-16T02:10:12.910Z,89.67
2023-06-16T02:15:19.576Z,90.35
2023-06-16T02:20:26.144Z,90.62
2023-06-16T02:25:29.585Z,90.97
2023-06-16T02:30:32.842Z,90.99
2023-06-16T02:35:36.049Z,91.39
2023-06-16T02:40:39.375Z,91.36
2023-06-16T02:45:42.780Z,91.77
2023-06-16T02:50:46.258Z,91.79
2023-06-16T02:55:52.930Z,92.27
2023-06-16T03:00:56.674Z,92.60
2023-06-16T03:06:17.844Z,93.02
2023-06-16T03:11:24.537Z,92.95
2023-06-16T03:16:32.804Z,93.08
2023-06-16T03:21:36.755Z,93.12
2023-06-16T03:26:42.575Z,93.46
2023-06-16T03:31:50.832Z,94.61
2023-06-16T03:36:58.424Z,95.55
2023-06-16T03:42:05.926Z,95.65
2023-06-16T03:47:09.484Z,96.23
2023-06-16T03:52:13.046Z,96.75
2023-06-16T03:57:16.942Z,96.54
2023-06-16T04:02:23.197Z,96.16
2023-06-16T04:07:27.639Z,96.38
2023-06-16T04:12:31.118Z,96.33
2023-06-16T04:17:41.578Z,96.44
2023-06-16T04:22:46.196Z,97.28
2023-06-16T04:27:52.511Z,97.85
2023-06-16T04:33:00.325Z,97.76
2023-06-16T04:38:09.924Z,97.64
2023-06-16T04:43:13.906Z,97.34
2023-06-16T04:48:17.744Z,96.88
2023-06-16T04:53:22.838Z,96.35
2023-06-16T04:58:30.397Z,96.46
2023-06-16T05:03:34.046Z,96.30
2023-06-16T05:08:37.349Z,95.30
2023-06-16T05:13:40.995Z,94.72
2023-06-16T05:18:45.143Z,94.58
2023-06-16T05:23:48.862Z,93.97
2023-06-16T05:28:52.139Z,92.78
2023-06-16T05:33:57.095Z,91.41
2023-06-16T05:39:04.318Z,90.56
2023-06-16T05:44:08.550Z,89.15
2023-06-16T05:49:11.931Z,87.13
2023-06-16T05:54:15.528Z,85.88
2023-06-16T05:59:23.851Z,85.72
2023-06-16T06:04:29.491Z,85.22
2023-06-16T06:09:39.088Z,84.09
2023-06-16T06:14:43.455Z,82.22
2023-06-16T06:19:48.609Z,79.92
2023-06-16T06:24:52.007Z,79.17
2023-06-16T06:29:55.546Z,78.39
2023-06-16T06:34:59.263Z,77.18
2023-06-16T06:40:05.835Z,76.85
2023-06-16T06:45:15.393Z,75.99
2023-06-16T06:50:19.013Z,74.57
2023-06-16T06:55:22.683Z,72.99
2023-06-16T07:00:25.960Z,72.37
2023-06-16T07:05:29.220Z,70.92
2023-06-16T07:10:34.085Z,70.43
2023-06-16T07:15:37.576Z,68.82
2023-06-16T07:20:41.096Z,68.00
2023-06-16T07:25:44.541Z,67.86
2023-06-16T07:30:49.017Z,67.71
2023-06-16T07:35:52.160Z,67.47
2023-06-16T07:40:55.401Z,66.78
2023-06-16T07:45:58.734Z,65.06
2023-06-16T07:51:02.036Z,63.89
2023-06-16T07:56:05.434Z,62.42
2023-06-16T08:01:09.010Z,61.14
2023-06-16T08:06:12.508Z,60.77
2023-06-16T08:11:16.037Z,59.63
2023-06-16T08:16:19.338Z,59.41
2023-06-16T08:21:22.842Z,59.67
2023-06-16T08:26:26.243Z,58.90
2023-06-16T08:31:29.713Z,58.30
2023-06-16T08:36:34.448Z,57.96
2023-06-16T08:41:39.815Z,57.88
2023-06-16T08:46:43.513Z,57.37
2023-06-16T08:51:51.496Z,57.21
2023-06-16T08:57:02.536Z,56.08
2023-06-16T09:02:24.590Z,55.95
2023-06-16T09:07:29.105Z,56.22
2023-06-16T09:12:32.455Z,55.26
2023-06-16T09:17:36.666Z,54.39
2023-06-16T09:22:40.403Z,54.34
2023-06-16T09:27:51.938Z,53.97
2023-06-16T09:32:55.904Z,53.32
2023-06-16T09:38:02.171Z,53.84
2023-06-16T09:43:11.739Z,53.86
2023-06-16T09:48:15.224Z,53.98
2023-06-16T09:53:20.366Z,53.39
2023-06-16T09:58:37.640Z,52.88
2023-06-16T10:03:50.175Z,51.14
2023-06-16T10:09:19.535Z,51.18
2023-06-16T10:14:26.920Z,52.17
2023-06-16T10:19:36.260Z,49.62
2023-06-16T10:24:40.803Z,49.48
2023-06-16T10:29:47.871Z,49.14
2023-06-16T10:34:58.307Z,48.77
2023-06-16T10:40:09.953Z,48.40
2023-06-16T10:45:30.678Z,48.03
2023-06-16T10:50:39.949Z,47.90
2023-06-16T10:55:44.967Z,47.88
2023-06-16T11:01:03.983Z,47.33
2023-06-16T11:06:07.429Z,48.09
2023-06-16T11:11:10.720Z,47.65
2023-06-16T11:16:13.975Z,47.94
2023-06-16T11:21:17.647Z,47.40
2023-06-16T11:26:23.681Z,47.03
2023-06-16T11:31:30.370Z,46.02
2023-06-16T11:36:36.539Z,46.58
2023-06-16T11:41:42.482Z,46.94
2023-06-16T11:46:51.025Z,46.74
2023-06-16T11:51:54.878Z,46.04
2023-06-16T11:56:59.621Z,46.37
2023-06-16T12:02:04.572Z,46.45
2023-06-16T12:07:08.210Z,45.74
2023-06-16T12:12:11.720Z,45.54
2023-06-16T12:17:14.920Z,46.59
2023-06-16T12:22:18.251Z,46.68
2023-06-16T12:27:27.994Z,45.65
2023-06-16T12:32:32.642Z,45.04
2023-06-16T12:37:39.752Z,45.22
2023-06-16T12:42:42.833Z,45.11
2023-06-16T12:47:46.093Z,45.12
2023-06-16T12:52:49.447Z,42.78
2023-06-16T12:57:52.657Z,43.33
2023-06-16T13:02:56.461Z,43.79
2023-06-16T13:08:00.187Z,45.18
2023-06-16T13:13:03.463Z,43.98
2023-06-16T13:18:08.547Z,43.51
2023-06-16T13:23:23.094Z,43.44
2023-06-16T13:28:26.843Z,44.03
2023-06-16T13:33:30.735Z,43.29
2023-06-16T13:38:34.956Z,42.92
2023-06-16T13:43:38.436Z,43.33
2023-06-16T13:48:41.649Z,43.64
2023-06-16T13:53:44.942Z,43.85
2023-06-16T13:58:48.170Z,43.74
2023-06-16T14:10:18.667Z,43.92
2023-06-16T14:15:22.492Z,43.22
2023-06-16T14:20:25.890Z,42.71
2023-06-16T14:25:29.180Z,43.62
2023-06-16T14:30:34.444Z,44.17
2023-06-16T14:35:37.883Z,43.89
2023-06-16T14:40:41.178Z,43.82
2023-06-16T14:45:44.526Z,44.25
2023-06-16T14:50:48.336Z,44.03
2023-06-16T14:55:51.736Z,44.55
2023-06-16T15:00:55.447Z,45.09
2023-06-16T15:05:58.657Z,44.95
2023-06-16T15:11:01.891Z,45.77
2023-06-16T15:16:05.223Z,45.80
2023-06-16T15:21:09.696Z,45.79
2023-06-16T15:26:13.022Z,46.01
2023-06-16T15:31:16.256Z,45.37
2023-06-16T15:36:19.674Z,45.65
2023-06-16T15:41:23.118Z,45.59
2023-06-16T15:46:26.542Z,46.29
2023-06-16T15:51:30.434Z,46.47
2023-06-16T15:56:34.265Z,47.27
2023-06-16T16:01:39.653Z,47.60
2023-06-16T16:06:43.095Z,48.05
2023-06-16T16:11:46.388Z,48.72
2023-06-16T16:16:49.709Z,48.96
2023-06-16T16:21:53.599Z,48.76
2023-06-16T16:26:56.742Z,48.50
2023-06-16T16:32:02.574Z,47.74
2023-06-16T16:37:07.807Z,47.76
2023-06-16T16:42:11.337Z,47.98
2023-06-16T16:47:16.000Z,47.03
2023-06-16T16:52:19.248Z,47.15
2023-06-16T16:57:22.474Z,46.45
2023-06-16T17:02:25.617Z,46.45
2023-06-16T17:07:28.763Z,47.30
2023-06-16T17:12:32.082Z,47.03
2023-06-16T17:17:35.253Z,47.39
2023-06-16T17:22:38.669Z,47.99
2023-06-16T17:27:57.462Z,49.06
2023-06-16T17:33:02.386Z,49.96
2023-06-16T17:38:33.812Z,50.98
2023-06-16T17:44:05.682Z,52.57
2023-06-16T17:49:09.230Z,53.37
2023-06-16T17:54:13.166Z,54.34
2023-06-16T17:59:16.606Z,55.09
2023-06-16T18:04:22.405Z,55.67
2023-06-16T18:09:25.643Z,56.47
2023-06-16T18:14:31.757Z,57.19
2023-06-16T18:19:35.206Z,57.79
2023-06-16T18:24:38.427Z,58.50
2023-06-16T18:29:41.586Z,58.30
2023-06-16T18:34:44.917Z,58.54
2023-06-16T18:39:48.583Z,59.19
2023-06-16T18:44:51.881Z,59.50
2023-06-16T18:49:56.901Z,59.70
2023-06-16T18:55:01.336Z,60.26
2023-06-16T19:00:06.565Z,60.67
2023-06-16T19:05:12.493Z,61.05
2023-06-16T19:10:15.735Z,62.03
2023-06-16T19:15:21.483Z,62.48
2023-06-16T19:20:24.729Z,63.01
2023-06-16T19:25:28.092Z,63.66
2023-06-16T19:30:31.804Z,64.63
2023-06-16T19:35:34.995Z,64.06
2023-06-16T19:40:38.236Z,63.76
2023-06-16T19:45:41.541Z,63.85
2023-06-16T19:50:44.855Z,64.12
2023-06-16T19:55:50.076Z,64.64
2023-06-16T20:00:54.302Z,64.64
2023-06-16T20:05:57.613Z,65.46
2023-06-16T20:11:00.928Z,65.78
2023-06-16T20:16:05.172Z,65.85
2023-06-16T20:21:26.142Z,66.16
2023-06-16T20:26:33.758Z,66.82
2023-06-16T20:31:37.525Z,67.57
2023-06-16T20:36:43.065Z,69.01
2023-06-16T20:41:46.421Z,69.41
2023-06-16T20:46:49.759Z,69.35
2023-06-16T20:51:54.637Z,69.47
2023-06-16T20:56:59.229Z,70.13
2023-06-16T21:02:03.357Z,70.90
2023-06-16T21:07:06.977Z,71.39
2023-06-16T21:12:11.559Z,72.14
2023-06-16T21:17:15.146Z,72.67
2023-06-16T21:22:18.371Z,73.91
2023-06-16T21:27:21.701Z,75.19
2023-06-16T21:32:27.291Z,76.44
2023-06-16T21:37:32.213Z,76.32
2023-06-16T21:42:38.653Z,77.02
2023-06-16T21:47:42.362Z,78.35
2023-06-16T21:52:45.918Z,79.48
2023-06-16T21:57:49.146Z,81.07
2023-06-16T22:02:52.540Z,82.66
2023-06-16T22:07:58.670Z,83.85
2023-06-16T22:13:05.304Z,84.86
2023-06-16T22:18:09.053Z,85.35
2023-06-16T22:23:13.943Z,85.15
2023-06-16T22:28:17.171Z,85.82
2023-06-16T22:33:22.418Z,86.09
2023-06-16T22:38:25.793Z,87.26
2023-06-16T22:43:29.104Z,88.31
2023-06-16T22:48:33.712Z,89.45
2023-06-16T22:53:36.994Z,90.28
2023-06-16T22:58:40.201Z,90.51
2023-06-16T23:03:43.441Z,90.18
2023-06-16T23:08:46.728Z,90.23
2023-06-16T23:13:49.815Z,90.60
2023-06-16T23:18:53.034Z,91.22
2023-06-16T23:23:57.372Z,92.00
2023-06-16T23:29:01.437Z,92.43
2023-06-16T23:34:04.886Z,92.64
2023-06-16T23:39:09.831Z,93.13
2023-06-16T23:44:13.094Z,93.83
2023-06-16T23:49:16.308Z,95.04
2023-06-16T23:54:19.430Z,95.32
2023-06-16T23:59:24.541Z,95.42
